createdAt,value
2022-11-28T00:05:50.444Z,45.21
2022-11-28T00:15:55.744Z,46.02
2022-11-28T00:26:01.176Z,45.71
2022-11-28T00:36:06.492Z,45.55
2022-11-28T00:46:11.841Z,45.20
2022-11-28T00:56:17.014Z,45.51
2022-11-28T01:06:22.794Z,45.64
2022-11-28T01:16:28.517Z,45.68
2022-11-28T01:26:34.049Z,45.27
2022-11-28T01:36:39.354Z,45.69
2022-11-28T01:46:44.807Z,45.22
2022-11-28T01:56:50.095Z,45.31
2022-11-28T02:06:55.530Z,45.45
2022-11-28T02:17:00.967Z,45.54
2022-11-28T02:27:06.540Z,45.51
2022-11-28T02:37:11.979Z,45.54
2022-11-28T02:47:17.502Z,45.82
2022-11-28T02:57:22.889Z,45.62
2022-11-28T03:07:28.330Z,45.80
2022-11-28T03:17:33.738Z,45.74
2022-11-28T03:27:39.199Z,45.79
2022-11-28T03:37:44.623Z,45.76
2022-11-28T03:47:49.756Z,45.78
2022-11-28T03:57:55.353Z,45.90
2022-11-28T04:08:00.780Z,45.74
2022-11-28T04:18:06.007Z,45.77
2022-11-28T04:28:11.200Z,45.62
2022-11-28T04:38:16.403Z,45.89
2022-11-28T04:48:21.373Z,45.76
2022-11-28T04:58:26.711Z,45.75
2022-11-28T05:08:32.212Z,45.67
2022-11-28T05:18:37.515Z,45.76
2022-11-28T05:28:42.651Z,45.78
2022-11-28T05:38:48.089Z,45.53
2022-11-28T05:48:53.587Z,45.49
2022-11-28T05:58:58.881Z,45.73
2022-11-28T06:09:04.252Z,45.83
2022-11-28T06:19:09.134Z,45.64
2022-11-28T06:29:14.951Z,45.77
2022-11-28T06:39:19.889Z,45.80
2022-11-28T06:49:25.271Z,45.49
2022-11-28T06:59:30.207Z,45.54
2022-11-28T07:09:35.386Z,45.43
2022-11-28T07:19:41.358Z,45.42
2022-11-28T07:29:46.983Z,45.50
2022-11-28T07:39:51.917Z,45.43
2022-11-28T07:49:57.335Z,45.63
2022-11-28T08:00:02.256Z,45.49
2022-11-28T08:10:07.633Z,45.40
2022-11-28T08:20:12.869Z,45.51
2022-11-28T08:30:17.986Z,45.44
2022-11-28T08:40:23.693Z,45.48
2022-11-28T08:50:28.987Z,45.42
2022-11-28T09:00:34.295Z,45.36
2022-11-28T09:10:39.270Z,45.66
2022-11-28T09:20:44.365Z,45.43
2022-11-28T09:30:49.837Z,45.37
2022-11-28T09:40:55.373Z,45.42
2022-11-28T09:51:00.752Z,45.16
2022-11-28T10:01:06.015Z,45.33
2022-11-28T10:11:11.241Z,45.53
2022-11-28T10:21:16.688Z,45.43
2022-11-28T10:31:21.721Z,45.74
2022-11-28T10:41:27.109Z,45.88
2022-11-28T10:51:32.199Z,46.13
2022-11-28T11:01:37.825Z,47.26
2022-11-28T11:11:43.073Z,46.22
2022-11-28T11:21:48.461Z,45.87
2022-11-28T11:31:53.692Z,46.38
2022-11-28T11:41:59.343Z,46.04
2022-11-28T11:52:04.739Z,45.66
2022-11-28T12:02:09.810Z,45.62
2022-11-28T12:12:15.284Z,46.00
2022-11-28T12:22:20.627Z,45.75
2022-11-28T12:32:25.958Z,45.65
2022-11-28T12:42:31.497Z,45.36
2022-11-28T12:52:36.622Z,45.20
2022-11-28T13:02:41.981Z,44.94
2022-11-28T13:12:47.538Z,45.56
2022-11-28T13:22:52.728Z,45.23
2022-11-28T13:32:57.983Z,45.42
2022-11-28T13:43:07.688Z,45.80
2022-11-28T13:53:13.578Z,45.73
2022-11-28T14:03:18.821Z,45.89
2022-11-28T14:13:24.156Z,45.99
2022-11-28T14:23:29.451Z,45.78
2022-11-28T14:33:34.475Z,45.75
2022-11-28T14:43:40.254Z,45.70
2022-11-28T14:53:45.553Z,46.07
2022-11-28T15:03:50.919Z,46.18
2022-11-28T15:13:56.187Z,45.73
2022-11-28T15:24:01.056Z,45.45
2022-11-28T15:34:06.451Z,45.20
2022-11-28T15:44:11.654Z,45.04
2022-11-28T15:54:16.983Z,44.54
2022-11-28T16:04:22.218Z,44.90
2022-11-28T16:14:27.938Z,44.78
2022-11-28T16:24:38.334Z,44.87
2022-11-28T16:34:43.841Z,44.82
2022-11-28T16:44:49.149Z,44.84
2022-11-28T16:54:54.505Z,44.82
2022-11-28T17:04:59.674Z,44.73
2022-11-28T17:15:04.985Z,44.89
2022-11-28T17:25:10.406Z,44.82
2022-11-28T17:35:15.544Z,44.72
2022-11-28T17:45:20.718Z,44.82
2022-11-28T17:55:26.008Z,44.80
2022-11-28T18:05:31.419Z,45.01
2022-11-28T18:15:36.407Z,44.75
2022-11-28T18:25:42.234Z,44.99
2022-11-28T18:35:47.024Z,44.78
2022-11-28T18:45:52.671Z,44.69
2022-11-28T18:55:58.010Z,44.86
2022-11-28T19:06:03.134Z,45.19
2022-11-28T19:16:08.629Z,44.97
2022-11-28T19:26:13.820Z,45.02
2022-11-28T19:36:18.886Z,44.98
2022-11-28T19:46:24.353Z,45.43
2022-11-28T19:56:29.980Z,45.68
2022-11-28T20:06:35.216Z,45.65
2022-11-28T20:16:41.121Z,45.53
2022-11-28T20:26:46.268Z,46.07
2022-11-28T20:36:51.825Z,46.15
2022-11-28T20:46:57.024Z,46.32
2022-11-28T21:07:12.723Z,46.65
2022-11-28T21:17:18.254Z,46.49
2022-11-28T21:27:23.837Z,46.42
2022-11-28T21:37:29.363Z,46.43
2022-11-28T21:47:34.683Z,46.35
2022-11-28T21:57:40.534Z,46.22
2022-11-28T22:07:46.120Z,46.18
2022-11-28T22:17:51.631Z,46.10
2022-11-28T22:27:56.941Z,46.20
2022-11-28T22:38:02.019Z,46.26
2022-11-28T22:48:07.520Z,46.43
2022-11-28T22:58:13.249Z,46.26
2022-11-28T23:08:18.760Z,46.18
2022-11-28T23:18:24.972Z,46.13
2022-11-28T23:28:30.423Z,46.47
2022-11-28T23:38:35.790Z,46.25
2022-11-28T23:48:40.728Z,46.16
2022-11-28T23:58:46.329Z,46.15
